Flagstaff, AZ

11:17 AM MST on May 04, 2015 (GMT -0700)
Bow and Arrow | | Change Station
CLOSE
Current Station
Personal Weather Station
Location: Flagstaff, AZ
Elevation: 6900 ft
Nearby Weather Stations

Elev 6900 ft 35.16 °N, 111.66 °W | Updated 1 second ago

Overcast
Overcast
54.7 °F
Feels Like 54.7 °F
N
2.2
Wind Variable Wind from ESE
Gusts 3.6 mph

Today
High -- | Low -- °F
--% Chance of Precip.
Yesterday
High -- | Low -- °F
Precip. -- in
5:32 AM 7:14 PM
Full, 100% visible
Pressure 29.93 in
Visibility 10.0 miles
Clouds Mostly Cloudy 10000 ft
Overcast 11000 ft
Dew Point 28 °F
Humidity 36%
Rainfall 0.00 in
Snow Depth Not available.
UV 3 out of 12
Pollen 5.50 out of 12
Air Quality Not available.
Flu Activity Local Activity
METAR KFLG 041757Z VRB03KT 10SM BKN100 OVC110 09/06 A3008 RMK AO2 PK WND 03026/1709 RAE29 SLP135 P0002 60007 T00940056 10094 20056 58003

More Conditions Fewer Conditions

Pressure 29.93 in
Visibility 10.0 miles
Clouds Mostly Cloudy 10000 ft
Overcast 11000 ft
Dew Point 28 °F
Humidity 36%
Rainfall 0.00 in
Snow Depth Not available.
UV 3 out of 12
Pollen 5.50 out of 12
Air Quality Not available.
Flu Activity Local Activity
METAR KFLG 041757Z VRB03KT 10SM BKN100 OVC110 09/06 A3008 RMK AO2 PK WND 03026/1709 RAE29 SLP135 P0002 60007 T00940056 10094 20056 58003

More Conditions Fewer Conditions

Nepal has a long way to go to dig out and rebuild from a devastating earthquake. We have teamed up with several charities and organizations to make contributing to the relief effort as easy as possible.
How you can help: Portlight Strategies | Red Cross

10-Day Weather Forecast

Almanac

Astronomy

May. 04, 2015 Rise Set
Actual Time
Civil Twilight
Nautical Twilight
Astronomical Twilight
Moon
Length of Visible Light
Length of Day
Tomorrow will be .
, % of the Moon is Illuminated

Today's Extremes

State Highs State Lows

Community

WunderPhotos

Upload Photos

1,818,663 photos uploaded!

WunderBlogs® & News

Nearby

Air Quality

  Air Quality AQ Index Pollutant
Not available.

Snow Depth

Station Depth Elevation

Earthquake Activity

City Distance Mag. Time & Date
Minimum magnitude displayed is 2.5.

Coastal Water Temperatures

Place Temperature

Stations

Nearby Weather Stations

Station Location Temp. Windchill Dew Point Humidity Wind Precip. Elev Updated Type